Time;durP1;ratioP1;P1;durP2;ratioP2;P2;SDS_P1;SDS_P2;PMS_P1;PMS_P2;Temp;Humidity;BMP_temperature;BMP_pressure;BME280_temperature;BME280_humidity;BME280_pressure;Samples;Min_cycle;Max_cycle;Signal;HPM_P1;HPM_P2
2023/07/30 00:00:45;;;;;;;1.88;1.67;;;21.60;64.20;;;;;;5113010;28;20177;-64
2023/07/30 00:03:11;;;;;;;2.28;1.80;;;21.60;64.20;;;;;;5093575;28;20238;-64
2023/07/30 00:05:36;;;;;;;2.65;1.88;;;21.60;64.20;;;;;;5113149;28;20160;-64
2023/07/30 00:08:02;;;;;;;2.22;1.70;;;21.50;64.80;;;;;;5112911;28;20684;-64
2023/07/30 00:10:27;;;;;;;3.22;1.70;;;21.50;64.10;;;;;;5111489;28;20223;-64
2023/07/30 00:12:53;;;;;;;2.00;1.45;;;21.60;65.00;;;;;;5112848;28;20272;-65
2023/07/30 00:15:18;;;;;;;2.85;1.70;;;21.60;64.00;;;;;;5112443;28;20496;-63
2023/07/30 00:17:44;;;;;;;3.28;1.70;;;21.50;64.00;;;;;;5112219;28;20209;-63
2023/07/30 00:20:10;;;;;;;3.15;2.10;;;21.50;64.00;;;;;;5111966;28;20267;-64
2023/07/30 00:22:35;;;;;;;2.47;1.60;;;21.50;63.90;;;;;;5112864;28;20169;-64
2023/07/30 00:25:01;;;;;;;1.40;1.30;;;21.50;63.90;;;;;;5111846;28;20228;-63
2023/07/30 00:27:26;;;;;;;2.10;1.50;;;21.50;63.80;;;;;;5112788;28;20182;-63
2023/07/30 00:29:52;;;;;;;3.30;1.52;;;21.50;63.80;;;;;;5112680;28;20184;-64
2023/07/30 00:32:17;;;;;;;2.63;1.90;;;21.60;63.80;;;;;;5111660;28;20255;-64
2023/07/30 00:34:43;;;;;;;1.95;1.35;;;21.50;63.80;;;;;;5112800;28;20203;-65
2023/07/30 00:37:09;;;;;;;3.00;1.88;;;21.50;64.50;;;;;;5112265;28;20180;-65
2023/07/30 00:39:35;;;;;;;1.52;1.42;;;21.50;63.70;;;;;;5111953;28;20184;-64
2023/07/30 00:42:00;;;;;;;4.13;1.88;;;21.50;63.70;;;;;;5112369;28;20200;-64
2023/07/30 00:44:26;;;;;;;2.60;1.60;;;21.50;63.70;;;;;;5112637;28;20173;-63
2023/07/30 00:46:51;;;;;;;3.90;1.95;;;21.50;63.70;;;;;;5111833;28;20165;-63
2023/07/30 00:49:17;;;;;;;2.70;1.88;;;21.50;63.60;;;;;;5112594;28;20181;-63
2023/07/30 00:51:42;;;;;;;3.03;1.50;;;21.50;63.50;;;;;;5111998;28;20259;-63
2023/07/30 00:54:08;;;;;;;2.65;1.67;;;21.50;63.60;;;;;;5094127;28;20654;-63
2023/07/30 00:56:34;;;;;;;1.92;1.63;;;21.50;63.60;;;;;;5112462;28;20260;-63
2023/07/30 00:58:59;;;;;;;2.60;1.92;;;21.50;63.50;;;;;;5093442;28;20217;-64
2023/07/30 01:01:25;;;;;;;3.42;1.42;;;21.40;63.40;;;;;;5094349;28;20588;-64
2023/07/30 01:03:50;;;;;;;2.05;1.52;;;21.40;63.50;;;;;;5112615;28;20173;-64
2023/07/30 01:06:16;;;;;;;2.53;1.90;;;21.40;63.50;;;;;;5111615;28;20177;-64
2023/07/30 01:08:41;;;;;;;3.47;1.70;;;21.40;63.40;;;;;;5112369;28;20177;-64
2023/07/30 01:11:07;;;;;;;2.00;1.75;;;21.40;63.50;;;;;;5112268;28;20201;-63
2023/07/30 01:13:32;;;;;;;6.75;1.98;;;21.40;63.50;;;;;;5093620;28;20192;-63
2023/07/30 01:15:58;;;;;;;2.63;1.75;;;21.40;63.50;;;;;;5093946;28;20205;-63
2023/07/30 01:18:24;;;;;;;3.33;1.88;;;21.40;63.40;;;;;;5094195;28;20671;-64
2023/07/30 01:20:53;;;;;;;2.25;1.70;;;21.40;63.40;;;;;;5111500;28;20177;-63
2023/07/30 01:23:18;;;;;;;2.67;1.90;;;21.40;63.40;;;;;;5114668;28;20173;-63
2023/07/30 01:25:44;;;;;;;3.97;1.92;;;21.40;63.40;;;;;;5116122;28;20226;-63
2023/07/30 01:28:09;;;;;;;2.83;1.90;;;21.40;63.30;;;;;;5114895;28;20177;-64
2023/07/30 01:30:40;;;;;;;2.60;1.83;;;21.40;63.40;;;;;;5097813;28;20173;-64
2023/07/30 01:33:06;;;;;;;2.42;1.70;;;21.40;63.30;;;;;;5115610;28;20181;-64
2023/07/30 01:35:32;;;;;;;3.20;1.80;;;21.40;63.30;;;;;;5097157;28;20284;-65
2023/07/30 01:37:57;;;;;;;2.75;2.00;;;21.40;63.20;;;;;;5097147;28;20652;-64
2023/07/30 01:40:23;;;;;;;3.30;1.92;;;21.40;63.30;;;;;;5115609;28;20315;-64
2023/07/30 01:42:49;;;;;;;2.88;1.77;;;21.40;63.30;;;;;;5114821;28;20529;-64
2023/07/30 01:45:15;;;;;;;3.55;2.08;;;21.40;63.30;;;;;;5115291;28;20178;-64
2023/07/30 01:47:40;;;;;;;4.93;1.75;;;21.40;63.30;;;;;;5115522;28;20177;-64
2023/07/30 01:50:06;;;;;;;4.28;2.00;;;21.40;63.30;;;;;;5114465;28;20188;-63
2023/07/30 01:52:31;;;;;;;4.00;1.88;;;21.40;63.20;;;;;;5115637;28;20169;-63
2023/07/30 01:54:58;;;;;;;4.55;2.00;;;21.40;63.30;;;;;;5115145;28;20177;-63
2023/07/30 01:57:24;;;;;;;3.13;2.00;;;21.30;63.20;;;;;;5114870;28;20169;-64
2023/07/30 01:59:49;;;;;;;2.85;2.00;;;21.40;63.20;;;;;;5115279;28;20707;-64
2023/07/30 02:02:15;;;;;;;4.95;2.25;;;21.40;63.20;;;;;;5114316;28;20264;-65
2023/07/30 02:04:40;;;;;;;3.15;2.05;;;21.30;63.10;;;;;;5115259;28;20200;-64
2023/07/30 02:07:06;;;;;;;2.13;1.90;;;21.30;63.10;;;;;;5114893;28;20606;-64
2023/07/30 02:09:32;;;;;;;2.83;2.15;;;21.30;63.10;;;;;;5114510;28;20210;-64
2023/07/30 02:11:57;;;;;;;2.15;2.00;;;21.30;63.10;;;;;;5114608;28;20659;-64
2023/07/30 02:14:23;;;;;;;2.33;2.00;;;21.30;63.10;;;;;;5115087;28;20252;-64
2023/07/30 02:16:48;;;;;;;2.67;2.20;;;21.30;63.10;;;;;;5114517;28;20628;-63
2023/07/30 02:19:14;;;;;;;2.60;2.10;;;21.30;63.10;;;;;;5114744;28;20232;-64
2023/07/30 02:21:42;;;;;;;2.53;2.10;;;21.30;63.10;;;;;;5115166;28;20252;-63
2023/07/30 02:24:10;;;;;;;3.03;2.00;;;21.30;63.10;;;;;;5113918;28;20252;-63
2023/07/30 02:26:35;;;;;;;2.25;1.88;;;21.30;63.10;;;;;;5114893;28;20265;-63
2023/07/30 02:29:01;;;;;;;4.97;2.17;;;21.30;63.00;;;;;;5115184;28;20197;-63
2023/07/30 02:31:26;;;;;;;2.60;1.77;;;21.30;63.00;;;;;;5114008;28;20631;-63
2023/07/30 02:33:52;;;;;;;2.92;1.92;;;21.30;63.00;;;;;;5113834;28;20170;-64
2023/07/30 02:36:17;;;;;;;2.90;2.10;;;21.20;62.90;;;;;;5114421;28;20175;-64
2023/07/30 02:38:43;;;;;;;2.83;2.00;;;21.20;63.00;;;;;;5113851;28;20245;-64
2023/07/30 02:41:09;;;;;;;3.22;2.20;;;21.30;63.10;;;;;;5113870;28;20240;-63
2023/07/30 02:43:34;;;;;;;4.07;2.08;;;21.30;63.00;;;;;;5114676;28;20176;-63
2023/07/30 02:46:00;;;;;;;4.80;2.03;;;21.30;62.90;;;;;;5113675;28;20257;-63
2023/07/30 02:48:25;;;;;;;4.65;2.20;;;21.30;63.10;;;;;;5114509;28;20181;-63
2023/07/30 02:50:51;;;;;;;3.05;1.90;;;21.30;63.10;;;;;;5114282;28;20170;-63
2023/07/30 02:53:16;;;;;;;2.95;2.15;;;21.30;63.00;;;;;;5113172;28;20177;-63
2023/07/30 02:55:42;;;;;;;3.00;1.70;;;21.20;63.10;;;;;;5114454;28;20165;-63
2023/07/30 02:58:07;;;;;;;4.60;2.20;;;21.20;63.00;;;;;;5113649;28;20690;-63
2023/07/30 03:00:33;;;;;;;3.65;2.38;;;21.30;63.00;;;;;;5113297;28;20546;-64
2023/07/30 03:02:58;;;;;;;4.40;2.08;;;21.30;62.90;;;;;;5113962;28;20662;-66
2023/07/30 03:05:26;;;;;;;3.65;2.00;;;21.20;62.90;;;;;;5113401;28;20708;-64
2023/07/30 03:07:51;;;;;;;3.33;1.98;;;21.30;63.00;;;;;;5114051;28;20173;-64
2023/07/30 03:10:17;;;;;;;2.85;2.20;;;21.20;63.00;;;;;;5113370;28;20191;-63
2023/07/30 03:12:42;;;;;;;3.67;1.92;;;21.20;63.00;;;;;;5113270;28;21079;-63
2023/07/30 03:15:09;;;;;;;2.33;1.65;;;21.20;62.90;;;;;;5113802;28;20597;-65
2023/07/30 03:17:35;;;;;;;3.03;1.98;;;21.20;63.00;;;;;;5113514;28;20246;-62
2023/07/30 03:20:01;;;;;;;3.42;2.20;;;21.20;63.00;;;;;;5112920;28;20165;-62
2023/07/30 03:22:26;;;;;;;3.20;2.38;;;21.20;63.00;;;;;;5113963;28;20237;-63
2023/07/30 03:24:52;;;;;;;3.72;1.88;;;21.20;63.00;;;;;;5113495;28;20173;-61
2023/07/30 03:27:17;;;;;;;5.35;2.08;;;21.20;62.90;;;;;;5112626;28;20175;-63
2023/07/30 03:29:43;;;;;;;3.70;2.08;;;21.20;62.90;;;;;;5113668;28;20306;-63
2023/07/30 03:32:08;;;;;;;4.03;2.00;;;21.20;63.80;;;;;;5113268;28;20633;-61
2023/07/30 03:34:34;;;;;;;4.05;2.17;;;21.20;62.80;;;;;;5112850;28;20168;-63
2023/07/30 03:37:00;;;;;;;4.90;2.40;;;21.20;62.90;;;;;;5113024;28;20230;-64
2023/07/30 03:39:26;;;;;;;3.67;1.92;;;21.20;62.90;;;;;;5112935;28;20217;-62
2023/07/30 03:41:51;;;;;;;2.88;2.17;;;21.20;62.90;;;;;;5112669;28;20188;-62
2023/07/30 03:44:17;;;;;;;5.00;2.13;;;21.20;63.10;;;;;;5113078;28;20187;-61
2023/07/30 03:46:43;;;;;;;3.00;2.15;;;21.20;62.90;;;;;;5112982;28;20177;-61
2023/07/30 03:49:09;;;;;;;3.65;2.17;;;21.20;62.90;;;;;;5112115;28;20180;-63
2023/07/30 03:51:34;;;;;;;3.95;2.00;;;21.20;62.90;;;;;;5113357;28;20226;-62
2023/07/30 03:54:00;;;;;;;2.95;2.38;;;21.20;62.90;;;;;;5112862;28;20545;-63
2023/07/30 03:56:26;;;;;;;4.68;2.70;;;21.20;63.10;;;;;;5112402;28;20218;-63
2023/07/30 03:58:51;;;;;;;5.30;2.03;;;21.20;63.00;;;;;;5113111;28;20624;-64
2023/07/30 04:01:17;;;;;;;3.33;2.45;;;21.20;63.00;;;;;;5112939;28;20252;-64
2023/07/30 04:03:42;;;;;;;5.30;2.28;;;21.20;62.90;;;;;;5112324;28;20177;-64
2023/07/30 04:06:08;;;;;;;3.72;2.53;;;21.20;63.10;;;;;;5112872;28;20176;-63
2023/07/30 04:08:33;;;;;;;3.45;2.05;;;21.20;63.00;;;;;;5113205;28;20173;-64
2023/07/30 04:10:59;;;;;;;3.65;2.25;;;21.20;63.10;;;;;;5111738;28;20166;-64
2023/07/30 04:13:24;;;;;;;6.25;2.72;;;21.20;63.10;;;;;;5113108;28;20178;-63
2023/07/30 04:15:50;;;;;;;4.55;2.25;;;21.20;63.10;;;;;;5112170;28;20167;-63
2023/07/30 04:18:16;;;;;;;5.00;2.53;;;21.10;63.10;;;;;;5112628;28;20239;-63
2023/07/30 04:20:41;;;;;;;5.13;2.40;;;21.20;63.00;;;;;;5112985;28;20206;-63
2023/07/30 04:23:07;;;;;;;4.90;2.20;;;21.20;63.10;;;;;;5111743;28;20183;-63
2023/07/30 04:25:32;;;;;;;3.95;2.60;;;21.20;63.10;;;;;;5112750;28;20208;-63
2023/07/30 04:27:58;;;;;;;5.00;2.22;;;21.10;63.00;;;;;;5112652;28;20185;-63
2023/07/30 04:30:24;;;;;;;4.53;2.38;;;21.20;63.00;;;;;;5111779;28;20249;-63
2023/07/30 04:32:52;;;;;;;5.13;3.25;;;21.20;62.90;;;;;;5112767;28;20181;-64
2023/07/30 04:35:18;;;;;;;4.05;2.70;;;21.20;63.10;;;;;;5112368;28;20169;-64
2023/07/30 04:37:43;;;;;;;4.75;2.20;;;21.10;62.90;;;;;;5111806;28;20216;-64
2023/07/30 04:40:09;;;;;;;3.45;2.45;;;21.20;63.10;;;;;;5112070;28;20236;-64
2023/07/30 04:42:35;;;;;;;3.65;2.38;;;21.10;63.00;;;;;;5112662;28;20214;-64
2023/07/30 04:45:00;;;;;;;4.25;2.50;;;21.20;63.10;;;;;;5111794;28;20169;-64
2023/07/30 04:47:26;;;;;;;4.47;2.55;;;21.20;63.10;;;;;;5112748;28;20539;-63
2023/07/30 04:49:52;;;;;;;4.28;3.13;;;21.20;63.10;;;;;;5112557;28;20173;-63
2023/07/30 04:52:18;;;;;;;4.32;2.53;;;21.10;63.00;;;;;;5111674;28;20636;-63
2023/07/30 04:54:45;;;;;;;4.00;2.13;;;21.20;62.90;;;;;;5112388;28;20740;-63
2023/07/30 04:57:11;;;;;;;4.75;2.53;;;21.20;63.00;;;;;;5112901;28;20172;-63
2023/07/30 04:59:36;;;;;;;4.30;2.75;;;21.20;63.10;;;;;;5115573;28;20246;-64
2023/07/30 05:02:02;;;;;;;5.07;2.70;;;21.20;63.00;;;;;;5116175;28;20172;-64
2023/07/30 05:04:27;;;;;;;6.57;2.92;;;21.20;63.10;;;;;;5116381;28;20169;-64
2023/07/30 05:06:53;;;;;;;5.50;3.10;;;21.10;63.00;;;;;;5115584;28;20235;-63
2023/07/30 05:09:18;;;;;;;6.38;2.95;;;21.20;63.00;;;;;;5115963;28;20173;-63
2023/07/30 05:11:44;;;;;;;6.18;2.80;;;21.20;63.10;;;;;;5116405;28;20176;-63
2023/07/30 05:14:09;;;;;;;4.90;2.72;;;21.20;63.10;;;;;;5115338;28;20173;-63
2023/07/30 05:16:36;;;;;;;4.13;3.13;;;21.20;63.00;;;;;;5116367;28;20173;-63
2023/07/30 05:19:01;;;;;;;3.90;2.95;;;21.20;63.10;;;;;;5115132;28;20212;-63
2023/07/30 05:21:27;;;;;;;5.03;2.55;;;21.20;62.80;;;;;;5115953;28;20176;-63
2023/07/30 05:23:53;;;;;;;7.07;3.35;;;21.20;63.10;;;;;;5115891;28;20273;-63
2023/07/30 05:26:18;;;;;;;4.10;2.60;;;21.20;62.80;;;;;;5114987;28;20226;-63
2023/07/30 05:28:44;;;;;;;4.38;2.75;;;21.20;62.90;;;;;;5115896;28;20172;-64
2023/07/30 05:31:09;;;;;;;5.15;3.03;;;21.20;63.00;;;;;;5115854;28;20252;-63
2023/07/30 05:33:35;;;;;;;4.35;2.85;;;21.20;63.70;;;;;;5115179;28;20169;-64
2023/07/30 05:36:00;;;;;;;3.97;2.72;;;21.20;63.10;;;;;;5115540;28;20169;-64
2023/07/30 05:38:26;;;;;;;6.95;3.03;;;21.20;62.90;;;;;;5115589;28;20219;-63
2023/07/30 05:40:51;;;;;;;5.50;2.95;;;21.20;62.90;;;;;;5114627;28;20227;-63
2023/07/30 05:43:17;;;;;;;5.38;2.40;;;21.20;63.10;;;;;;5115158;28;20173;-63
2023/07/30 05:45:43;;;;;;;6.55;3.08;;;21.20;63.90;;;;;;5115683;28;20380;-62
2023/07/30 05:48:09;;;;;;;3.80;2.53;;;21.20;63.00;;;;;;5114623;28;20252;-63
2023/07/30 05:50:34;;;;;;;5.43;3.40;;;21.20;63.10;;;;;;5115449;28;20196;-62
2023/07/30 05:53:00;;;;;;;6.22;2.78;;;21.20;63.00;;;;;;5114949;28;20177;-62
2023/07/30 05:55:25;;;;;;;6.97;3.08;;;21.20;63.10;;;;;;5114939;28;20173;-62
2023/07/30 05:57:53;;;;;;;5.18;2.72;;;21.20;63.10;;;;;;5115534;28;20200;-63
2023/07/30 06:00:18;;;;;;;6.05;3.10;;;21.20;63.10;;;;;;5096989;28;20204;-65
2023/07/30 06:02:44;;;;;;;5.13;3.00;;;21.20;63.10;;;;;;5114507;28;20169;-63
2023/07/30 06:05:10;;;;;;;7.20;3.08;;;21.20;63.10;;;;;;5115152;28;20177;-64
2023/07/30 06:07:35;;;;;;;6.93;3.05;;;21.20;63.20;;;;;;5115235;28;20628;-63
2023/07/30 06:10:01;;;;;;;5.70;2.97;;;21.20;63.20;;;;;;5112639;28;20188;-62
2023/07/30 06:12:26;;;;;;;10.38;4.20;;;21.20;63.10;;;;;;5115083;28;20165;-62
2023/07/30 06:14:52;;;;;;;6.68;3.60;;;21.20;62.90;;;;;;5114891;28;20622;-62
2023/07/30 06:17:17;;;;;;;4.85;3.15;;;21.20;63.10;;;;;;5113916;28;20165;-63
2023/07/30 06:19:43;;;;;;;6.20;2.75;;;21.20;63.10;;;;;;5114775;28;20694;-62
2023/07/30 06:22:08;;;;;;;5.95;2.88;;;21.20;63.20;;;;;;5114408;28;20169;-62
2023/07/30 06:24:34;;;;;;;8.48;3.60;;;21.20;63.10;;;;;;5114232;28;20210;-62
2023/07/30 06:26:59;;;;;;;5.82;3.22;;;21.20;63.20;;;;;;5114638;28;20325;-62
2023/07/30 06:29:25;;;;;;;7.55;3.30;;;21.20;63.20;;;;;;5114200;28;20165;-62
2023/07/30 06:31:51;;;;;;;6.78;3.38;;;21.20;63.10;;;;;;5114597;28;20177;-63
2023/07/30 06:34:16;;;;;;;6.05;3.58;;;21.20;63.30;;;;;;5079332;28;20173;-63
2023/07/30 06:36:42;;;;;;;9.35;3.75;;;21.20;63.60;;;;;;5113783;28;20181;-63
2023/07/30 06:39:10;;;;;;;6.57;3.67;;;21.20;63.20;;;;;;5114405;28;20213;-63
2023/07/30 06:41:36;;;;;;;5.03;2.97;;;21.20;63.30;;;;;;5114342;28;20213;-62
2023/07/30 06:44:01;;;;;;;6.95;3.40;;;21.20;63.20;;;;;;5113507;28;20173;-62
2023/07/30 06:46:27;;;;;;;6.18;3.22;;;21.30;63.30;;;;;;5114470;28;20169;-62
2023/07/30 06:48:52;;;;;;;6.22;3.47;;;21.20;63.10;;;;;;5114457;28;20200;-62
2023/07/30 06:51:23;;;;;;;6.78;3.67;;;21.30;63.10;;;;;;5113181;28;20531;-62
2023/07/30 06:53:49;;;;;;;7.55;3.97;;;21.30;63.10;;;;;;5096622;28;20185;-62
2023/07/30 06:56:14;;;;;;;5.45;3.13;;;21.30;63.20;;;;;;5114040;28;20224;-62
2023/07/30 06:58:40;;;;;;;5.25;3.40;;;21.30;63.10;;;;;;5113408;28;20687;-64
2023/07/30 07:01:05;;;;;;;7.35;3.67;;;21.30;63.10;;;;;;5114057;28;20577;-65
2023/07/30 07:03:31;;;;;;;9.15;3.80;;;21.30;63.90;;;;;;5114007;28;20214;-64
2023/07/30 07:05:57;;;;;;;8.68;4.03;;;21.30;63.10;;;;;;5112996;28;20169;-65
2023/07/30 07:08:22;;;;;;;6.50;3.83;;;21.30;62.90;;;;;;5113341;28;20181;-64
2023/07/30 07:10:48;;;;;;;9.70;4.30;;;21.30;63.10;;;;;;5113889;28;20176;-64
2023/07/30 07:13:15;;;;;;;9.32;3.88;;;21.30;63.10;;;;;;5113069;28;20176;-64
2023/07/30 07:15:41;;;;;;;7.80;3.97;;;21.30;63.30;;;;;;5113941;28;20176;-64
2023/07/30 07:18:07;;;;;;;6.57;3.35;;;21.30;63.20;;;;;;5113277;28;20213;-64
2023/07/30 07:20:32;;;;;;;9.40;4.22;;;21.30;63.20;;;;;;5112578;28;20587;-63
2023/07/30 07:22:58;;;;;;;6.07;3.60;;;21.30;63.10;;;;;;5113522;28;20639;-64
2023/07/30 07:25:24;;;;;;;4.90;3.45;;;21.30;63.20;;;;;;5113829;28;20183;-64
2023/07/30 07:27:49;;;;;;;7.88;3.78;;;21.40;63.30;;;;;;5113009;28;20214;-64
2023/07/30 07:30:15;;;;;;;8.43;3.97;;;21.40;63.20;;;;;;5113289;28;20699;-63
2023/07/30 07:32:40;;;;;;;10.63;4.05;;;21.40;63.20;;;;;;5112803;28;20531;-64
2023/07/30 07:35:06;;;;;;;8.40;4.47;;;21.40;63.10;;;;;;5113108;28;20169;-64
2023/07/30 07:37:32;;;;;;;5.70;3.95;;;21.40;63.10;;;;;;5113848;28;20169;-64
2023/07/30 07:39:58;;;;;;;6.10;3.65;;;21.40;64.00;;;;;;5112538;28;20357;-64
2023/07/30 07:42:24;;;;;;;8.23;3.72;;;21.40;63.10;;;;;;5113467;28;20173;-63
2023/07/30 07:44:49;;;;;;;5.82;4.03;;;21.40;63.20;;;;;;5113468;28;20215;-63
2023/07/30 07:47:15;;;;;;;7.78;3.85;;;21.40;63.20;;;;;;5112316;28;20735;-63
2023/07/30 07:49:41;;;;;;;7.50;3.75;;;21.50;64.10;;;;;;5113133;28;20178;-62
2023/07/30 07:52:07;;;;;;;6.10;3.88;;;21.50;63.00;;;;;;5113635;28;20177;-63
2023/07/30 07:54:32;;;;;;;7.78;4.45;;;21.60;62.90;;;;;;5112572;28;20165;-63
2023/07/30 07:56:58;;;;;;;4.55;3.70;;;21.60;62.80;;;;;;5112668;28;20196;-63
2023/07/30 07:59:24;;;;;;;6.65;3.78;;;21.50;63.00;;;;;;5113127;28;20244;-64
2023/07/30 08:01:49;;;;;;;7.97;4.10;;;21.50;63.10;;;;;;5112404;28;20556;-64
2023/07/30 08:04:15;;;;;;;7.63;4.75;;;21.40;63.20;;;;;;5112727;28;20556;-64
2023/07/30 08:06:40;;;;;;;7.50;4.18;;;21.40;63.30;;;;;;5113211;28;20188;-64
2023/07/30 08:09:06;;;;;;;7.25;4.10;;;21.40;63.40;;;;;;5112062;28;20280;-63
2023/07/30 08:11:31;;;;;;;8.23;4.03;;;21.40;63.40;;;;;;5112245;28;20618;-63
2023/07/30 08:13:57;;;;;;;7.03;4.45;;;21.40;63.40;;;;;;5112706;28;20230;-64
2023/07/30 08:16:22;;;;;;;7.88;3.63;;;21.40;63.40;;;;;;5112316;28;20585;-63
2023/07/30 08:18:48;;;;;;;6.13;4.07;;;21.40;63.40;;;;;;5112743;28;20215;-63
2023/07/30 08:21:17;;;;;;;8.73;4.32;;;21.40;63.40;;;;;;5112618;28;20191;-63
2023/07/30 08:23:43;;;;;;;6.25;3.80;;;21.40;64.20;;;;;;5112281;28;20181;-63
2023/07/30 08:26:08;;;;;;;9.75;3.90;;;21.40;63.40;;;;;;5112546;28;20175;-64
2023/07/30 08:28:36;;;;;;;7.55;4.40;;;21.50;63.30;;;;;;5112733;28;20216;-63
2023/07/30 08:31:02;;;;;;;7.30;3.80;;;21.50;63.20;;;;;;5111771;28;20531;-64
2023/07/30 08:33:29;;;;;;;5.38;3.65;;;21.60;63.20;;;;;;5115670;28;20631;-64
2023/07/30 08:35:58;;;;;;;9.82;4.70;;;21.50;63.00;;;;;;5116647;28;20173;-65
2023/07/30 08:38:24;;;;;;;9.52;4.13;;;21.50;63.90;;;;;;5116918;28;20220;-64
2023/07/30 08:40:50;;;;;;;6.80;4.10;;;21.50;63.10;;;;;;5116687;28;20224;-64
2023/07/30 08:43:15;;;;;;;9.05;4.22;;;21.50;63.10;;;;;;5115890;28;20668;-63
2023/07/30 08:45:41;;;;;;;8.18;5.35;;;21.50;63.10;;;;;;5116736;28;20255;-62
2023/07/30 08:48:06;;;;;;;5.13;3.70;;;21.50;63.10;;;;;;5097954;28;20639;-63
2023/07/30 08:50:32;;;;;;;8.15;3.78;;;21.50;63.10;;;;;;5097546;28;20610;-63
2023/07/30 08:52:57;;;;;;;6.03;4.10;;;21.50;63.00;;;;;;5097730;28;20253;-62
2023/07/30 08:55:23;;;;;;;6.72;4.22;;;21.60;63.10;;;;;;5125101;27;20226;-62
2023/07/30 08:57:49;;;;;;;10.07;4.38;;;21.60;62.90;;;;;;5085865;27;20560;-63
2023/07/30 09:00:15;;;;;;;6.15;3.53;;;21.60;62.90;;;;;;5136659;27;20169;-63
2023/07/30 09:02:47;;;;;;;9.07;4.38;;;21.60;62.90;;;;;;5126098;27;20173;-64
2023/07/30 09:05:12;;;;;;;6.65;4.28;;;21.60;62.90;;;;;;5115340;28;20207;-63
2023/07/30 09:07:38;;;;;;;6.28;3.90;;;21.60;63.10;;;;;;5116403;28;20169;-63
2023/07/30 09:10:04;;;;;;;6.28;3.70;;;21.60;63.10;;;;;;5126049;27;20229;-62
2023/07/30 09:12:30;;;;;;;6.57;4.28;;;21.60;63.00;;;;;;5115636;28;20173;-63
2023/07/30 09:14:56;;;;;;;6.78;3.95;;;21.60;63.10;;;;;;5115751;28;20169;-62
2023/07/30 09:17:21;;;;;;;8.15;4.55;;;21.60;63.20;;;;;;5116311;28;20184;-62
2023/07/30 09:19:47;;;;;;;8.70;4.20;;;21.60;63.20;;;;;;5115435;28;20611;-62
2023/07/30 09:22:13;;;;;;;8.65;4.20;;;21.60;63.20;;;;;;5118677;27;20172;-61
2023/07/30 09:24:44;;;;;;;7.68;4.60;;;21.60;63.20;;;;;;5126016;27;20177;-61
2023/07/30 09:27:10;;;;;;;9.35;4.80;;;21.60;63.20;;;;;;5123262;27;20199;-61
2023/07/30 09:29:36;;;;;;;5.00;3.63;;;21.60;63.10;;;;;;5107596;27;20192;-63
2023/07/30 09:32:01;;;;;;;8.88;4.60;;;21.60;63.10;;;;;;5124548;27;20173;-65
2023/07/30 09:34:27;;;;;;;7.55;4.18;;;21.60;63.20;;;;;;5126112;27;20172;-61
2023/07/30 09:36:54;;;;;;;7.97;3.97;;;21.70;62.90;;;;;;5123980;27;20173;-61
2023/07/30 09:39:25;;;;;;;8.52;3.72;;;21.80;62.70;;;;;;5133914;27;20265;-61
2023/07/30 09:41:52;;;;;;;8.73;4.53;;;21.80;62.60;;;;;;5136104;27;20190;-61
2023/07/30 09:44:19;;;;;;;7.53;4.25;;;21.90;62.70;;;;;;5122703;27;20199;-60
2023/07/30 09:46:48;;;;;;;10.43;3.83;;;21.90;62.60;;;;;;5115198;28;20173;-61
2023/07/30 09:49:15;;;;;;;8.82;4.25;;;21.90;62.50;;;;;;5115220;28;20208;-60
2023/07/30 09:51:40;;;;;;;8.18;4.05;;;22.00;62.50;;;;;;5115803;28;20184;-60
2023/07/30 09:54:11;;;;;;;5.38;3.78;;;22.10;63.20;;;;;;5114441;28;20174;-60
2023/07/30 09:56:36;;;;;;;7.68;4.13;;;22.00;62.40;;;;;;5115172;28;20170;-60
2023/07/30 09:59:03;;;;;;;7.70;4.15;;;22.10;62.50;;;;;;5114635;28;20511;-62
2023/07/30 10:01:28;;;;;;;7.75;3.92;;;22.10;62.40;;;;;;5116541;27;20173;-63
2023/07/30 10:03:56;;;;;;;6.13;3.70;;;22.20;62.30;;;;;;5117186;27;20175;-65
2023/07/30 10:06:23;;;;;;;5.68;4.00;;;22.10;62.30;;;;;;5135029;27;20181;-64
2023/07/30 10:08:49;;;;;;;5.43;3.72;;;22.20;63.20;;;;;;5116838;27;20672;-63
2023/07/30 10:11:14;;;;;;;7.68;3.90;;;22.20;62.10;;;;;;5100009;27;20251;-63
2023/07/30 10:13:41;;;;;;;9.85;3.75;;;22.20;62.20;;;;;;5135466;27;20255;-62
2023/07/30 10:16:11;;;;;;;7.88;3.90;;;22.10;63.10;;;;;;5134690;27;20274;-62
2023/07/30 10:18:40;;;;;;;5.43;3.78;;;22.00;62.40;;;;;;5135470;27;20575;-63
2023/07/30 10:21:10;;;;;;;7.28;3.45;;;22.00;62.60;;;;;;5135194;27;20177;-63
2023/07/30 10:23:45;;;;;;;6.95;3.53;;;21.90;62.60;;;;;;5134917;27;20207;-63
2023/07/30 10:26:10;;;;;;;6.32;3.28;;;21.90;62.60;;;;;;5135372;27;20187;-63
2023/07/30 10:28:38;;;;;;;5.28;2.85;;;21.90;62.70;;;;;;5134885;27;20173;-63
2023/07/30 10:31:13;;;;;;;6.63;3.28;;;21.90;62.70;;;;;;5134898;27;20625;-63
2023/07/30 10:33:53;;;;;;;8.55;3.58;;;21.80;62.70;;;;;;5135391;27;20171;-65
2023/07/30 10:36:32;;;;;;;5.20;3.40;;;21.80;62.70;;;;;;5134183;27;20359;-65
2023/07/30 10:39:01;;;;;;;7.53;3.40;;;21.80;62.70;;;;;;5134850;27;20204;-64
2023/07/30 10:41:26;;;;;;;6.35;3.35;;;21.90;62.60;;;;;;5134966;27;20273;-64
2023/07/30 10:43:53;;;;;;;6.40;3.17;;;21.90;62.40;;;;;;5134235;27;20564;-63
2023/07/30 10:46:19;;;;;;;7.15;3.88;;;22.00;62.20;;;;;;5099691;27;20168;-61
2023/07/30 10:48:46;;;;;;;7.65;3.10;;;22.00;62.10;;;;;;5134664;27;20183;-62
2023/07/30 10:51:18;;;;;;;7.15;3.50;;;22.00;62.10;;;;;;5133737;27;20203;-62
2023/07/30 10:53:44;;;;;;;9.68;3.53;;;22.00;62.10;;;;;;5134977;27;20255;-61
2023/07/30 10:56:10;;;;;;;7.15;3.10;;;22.00;62.10;;;;;;5133608;27;20196;-61
2023/07/30 10:58:36;;;;;;;7.90;3.03;;;22.00;62.10;;;;;;5115774;27;20682;-62
2023/07/30 11:01:03;;;;;;;5.88;3.47;;;22.00;62.10;;;;;;5134207;27;20692;-62
2023/07/30 11:03:29;;;;;;;9.82;3.88;;;22.00;62.10;;;;;;5114991;27;20177;-62
2023/07/30 11:05:55;;;;;;;5.25;2.80;;;22.10;62.10;;;;;;5113193;28;20186;-62
2023/07/30 11:08:36;;;;;;;6.75;3.10;;;22.10;62.00;;;;;;5113793;28;20644;-62
2023/07/30 11:11:02;;;;;;;6.40;2.80;;;22.20;61.90;;;;;;5113103;28;20233;-62
2023/07/30 11:13:27;;;;;;;5.55;2.80;;;22.20;61.80;;;;;;5113549;28;20177;-62
2023/07/30 11:15:53;;;;;;;6.65;3.13;;;22.20;61.50;;;;;;5113665;28;20265;-61
2023/07/30 11:18:18;;;;;;;6.68;2.97;;;22.30;61.40;;;;;;5094003;28;20243;-62
2023/07/30 11:20:44;;;;;;;7.85;2.92;;;22.30;61.40;;;;;;5113867;28;20181;-62
2023/07/30 11:23:22;;;;;;;5.63;3.00;;;22.30;61.40;;;;;;5095207;28;20170;-64
2023/07/30 11:25:49;;;;;;;7.30;2.55;;;22.30;61.30;;;;;;5112728;28;20169;-63
2023/07/30 11:28:26;;;;;;;6.85;2.72;;;22.30;61.40;;;;;;5113058;28;20181;-63
2023/07/30 11:30:52;;;;;;;6.53;2.88;;;22.30;61.40;;;;;;5113768;28;20173;-63
2023/07/30 11:33:17;;;;;;;7.15;2.53;;;22.30;61.40;;;;;;5112631;28;20176;-64
2023/07/30 11:35:43;;;;;;;5.85;3.10;;;22.20;61.50;;;;;;5095355;28;20161;-63
2023/07/30 11:38:09;;;;;;;5.40;2.20;;;22.20;61.60;;;;;;5112805;28;20208;-64
2023/07/30 11:40:37;;;;;;;4.05;2.47;;;22.30;61.60;;;;;;5077429;28;20298;-64
2023/07/30 11:43:04;;;;;;;5.28;2.65;;;22.20;61.60;;;;;;5077457;28;20181;-63
2023/07/30 11:45:29;;;;;;;6.38;2.25;;;22.20;61.70;;;;;;5113465;28;20179;-62
2023/07/30 11:48:05;;;;;;;5.97;2.65;;;22.30;61.60;;;;;;5112459;28;20169;-63
2023/07/30 11:50:49;;;;;;;5.35;2.47;;;22.40;61.30;;;;;;5096609;28;20258;-62
2023/07/30 11:53:15;;;;;;;4.50;2.38;;;22.40;61.20;;;;;;5112275;28;20169;-63
2023/07/30 11:55:41;;;;;;;5.10;2.17;;;22.40;61.20;;;;;;5113459;28;20177;-63
2023/07/30 11:58:07;;;;;;;4.95;2.08;;;22.40;61.10;;;;;;5112963;28;20201;-63
2023/07/30 12:00:33;;;;;;;2.78;1.92;;;22.40;62.00;;;;;;5112528;28;20226;-64
2023/07/30 12:03:09;;;;;;;5.80;2.70;;;22.50;61.20;;;;;;5092885;27;20172;-64
2023/07/30 12:05:35;;;;;;;4.43;2.55;;;22.40;61.40;;;;;;5133458;27;20562;-63
2023/07/30 12:08:03;;;;;;;5.10;1.92;;;22.30;61.50;;;;;;5132480;27;20233;-63
2023/07/30 12:10:41;;;;;;;4.72;2.00;;;22.40;61.60;;;;;;5133540;27;20176;-63
2023/07/30 12:13:17;;;;;;;4.95;2.38;;;22.40;61.40;;;;;;5115244;27;20168;-62
2023/07/30 12:15:50;;;;;;;3.67;2.13;;;22.40;61.50;;;;;;5132765;27;20642;-62
2023/07/30 12:18:15;;;;;;;3.28;1.98;;;22.40;61.40;;;;;;5132941;27;20231;-62
2023/07/30 12:20:41;;;;;;;4.38;2.10;;;22.40;61.20;;;;;;5133239;27;20164;-62
2023/07/30 12:23:06;;;;;;;3.10;2.03;;;22.40;61.00;;;;;;5132498;28;20175;-62
2023/07/30 12:25:32;;;;;;;3.67;1.90;;;22.40;60.70;;;;;;5133487;28;20246;-62
2023/07/30 12:27:58;;;;;;;2.75;1.80;;;22.50;60.60;;;;;;5133023;28;20695;-62
2023/07/30 12:30:23;;;;;;;2.83;1.65;;;22.50;60.50;;;;;;5132786;28;20711;-63
2023/07/30 12:32:49;;;;;;;3.35;1.70;;;22.50;60.70;;;;;;5133392;28;20192;-63
2023/07/30 12:35:14;;;;;;;3.38;1.95;;;22.50;60.80;;;;;;5132305;28;20168;-64
2023/07/30 12:37:40;;;;;;;3.55;1.85;;;22.40;60.80;;;;;;5133219;28;20206;-64
2023/07/30 12:40:06;;;;;;;2.63;1.70;;;22.40;60.90;;;;;;5132675;28;20235;-63